Airfield :
LOGIN :

Register | Disclaimer

   EN    FR    IT 

 










Legend :    VFR   Marginal VFR   IFR   Intensive IFR   Very Intensive IFR
Visi :
Ceiling :
>= 8 km
>= 3000ft
5 to 8 km
1000 to 3000 ft
1500m to 5 km
500 to 1000 ft
800 to 1500m
200 to 500 ft
< 800m
< 200 ft
Symbols :   Thunderstorms  Fog  Heavy snow  Heavy precipitations  Wind > 20 kt
SIGMETs :     Misc.  Thunderstorms  Icing  Turbulence  Mountain Waves  Volcanic Ashes






- Airport Elevation : 357 ft
- IATA code : TUF


LFOT - Tours

CURRENT METAR :
  • 221430Z AUTO 07007KT 020V110 CAVOK 27/15 Q1008 NOSIG

EXPIRED METARs :
  • 221400Z AUTO 07008KT 040V100 CAVOK 27/14 Q1009 NOSIG
  • 221330Z AUTO 07009KT CAVOK 27/15 Q1009 NOSIG
  • 221300Z AUTO 06009KT 030V100 CAVOK 26/14 Q1010 NOSIG
  • 221230Z AUTO 07007KT 020V100 CAVOK 26/13 Q1010 NOSIG
  • 221200Z AUTO 06006KT 010V100 CAVOK 25/14 Q1011 NOSIG

TAF TAF LFOT
Valid from the 22 at 12:00 until the 23 at 12:00 UTC


221100Z 2212/2312 06007KT CAVOK
TEMPO 2218/2301 4000 SHRA SCT060CB
PROB40
TEMPO 2218/2301 VRB15G30KT 2000 TSRA BKN050CB
PROB30
TEMPO 2220/2301 VRB20G40KT 1400 TSRAGR BKN050CB
BECMG 2301/2304 25010KT BKN012
PROB40
TEMPO 2304/2312 27015G25KT 4000 -SHRA BKN006 BKN012CB



MET'MAP, your aeronautical weather chart ! - Copyright ORBIFLY December 2007 - Disclaimer

ORBIFLY MET'MAP TEAM :

Programming & Development : Alexandra Zaïnal
Original concept : Baudouin d'Aumeries
Technical & hardware support : Manuel Goepfert
Assistance : Marc-Olivier Méhu

Contact : metmap@orbifly.com




SOURCES & CREDITS :

   NOAA